Time;durP1;ratioP1;P1;durP2;ratioP2;P2;SDS_P1;SDS_P2;PMS_P1;PMS_P2;Temp;Humidity;BMP_temperature;BMP_pressure;BME280_temperature;BME280_humidity;BME280_pressure;Samples;Min_cycle;Max_cycle;Signal;HPM_P1;HPM_P2
2023/04/16 00:01:54;;;;;;;23.08;12.35;;;;;;;;;;5079070;28;20159;-60
2023/04/16 00:04:20;;;;;;;15.35;10.77;;;;;;;;;;5083274;27;20495;-60
2023/04/16 00:06:46;;;;;;;17.67;10.82;;;;;;;;;;5082336;28;20040;-60
2023/04/16 00:09:13;;;;;;;16.92;11.55;;;;;;;;;;5080126;28;20566;-59
2023/04/16 00:11:39;;;;;;;16.13;9.98;;;;;;;;;;5081817;28;20556;-60
2023/04/16 00:14:05;;;;;;;19.08;12.18;;;;;;;;;;5080028;28;20036;-59
2023/04/16 00:16:31;;;;;;;18.73;12.52;;;;;;;;;;5083408;28;20168;-60
2023/04/16 00:18:57;;;;;;;17.23;12.02;;;;;;;;;;5078873;28;20040;-59
2023/04/16 00:21:23;;;;;;;22.30;12.82;;;;;;;;;;5079358;28;20040;-60
2023/04/16 00:23:49;;;;;;;17.30;10.15;;;;;;;;;;5085150;28;20041;-60
2023/04/16 00:26:15;;;;;;;21.67;12.20;;;;;;;;;;5085323;28;20040;-60
2023/04/16 00:28:42;;;;;;;15.52;9.50;;;;;;;;;;5085780;28;20130;-59
2023/04/16 00:31:08;;;;;;;22.17;11.13;;;;;;;;;;5084289;28;20048;-60
2023/04/16 00:33:34;;;;;;;22.75;12.48;;;;;;;;;;5085422;28;20036;-59
2023/04/16 00:36:00;;;;;;;17.08;10.32;;;;;;;;;;5068434;28;20923;-59
2023/04/16 00:38:29;;;;;;;19.35;11.20;;;;;;;;;;5083748;28;20044;-60
2023/04/16 00:40:57;;;;;;;19.08;11.80;;;;;;;;;;5082337;27;20040;-59
2023/04/16 00:43:24;;;;;;;19.83;12.38;;;;;;;;;;5085225;28;20056;-60
2023/04/16 00:45:50;;;;;;;25.40;12.30;;;;;;;;;;5082315;28;20044;-59
2023/04/16 00:48:16;;;;;;;22.05;10.48;;;;;;;;;;5085020;28;20341;-59
2023/04/16 00:50:42;;;;;;;19.95;11.73;;;;;;;;;;5084160;28;20114;-59
2023/04/16 00:53:09;;;;;;;18.10;13.07;;;;;;;;;;5082075;28;20044;-59
2023/04/16 00:55:35;;;;;;;22.13;12.70;;;;;;;;;;5069277;28;20088;-59
2023/04/16 00:58:01;;;;;;;20.75;14.15;;;;;;;;;;5085331;27;20134;-59
2023/04/16 01:00:27;;;;;;;21.73;12.07;;;;;;;;;;5082826;28;20573;-59
2023/04/16 01:02:54;;;;;;;28.27;11.88;;;;;;;;;;5081368;28;20044;-59
2023/04/16 01:05:20;;;;;;;18.88;10.88;;;;;;;;;;5080964;28;20094;-59
2023/04/16 01:07:46;;;;;;;21.55;11.07;;;;;;;;;;5084854;28;20040;-59
2023/04/16 01:10:12;;;;;;;19.05;11.88;;;;;;;;;;5085423;28;20110;-59
2023/04/16 01:12:38;;;;;;;22.15;14.38;;;;;;;;;;5085252;28;20182;-59
2023/04/16 01:15:05;;;;;;;18.48;13.38;;;;;;;;;;5084256;28;20045;-59
2023/04/16 01:17:31;;;;;;;22.65;12.73;;;;;;;;;;5084478;28;20044;-59
2023/04/16 01:20:00;;;;;;;21.08;12.05;;;;;;;;;;5084978;28;20051;-59
2023/04/16 01:22:29;;;;;;;23.27;12.77;;;;;;;;;;5068562;28;20156;-59
2023/04/16 01:24:55;;;;;;;21.70;12.00;;;;;;;;;;5082262;28;20050;-59
2023/04/16 01:27:21;;;;;;;17.23;10.77;;;;;;;;;;5084510;28;20108;-59
2023/04/16 01:29:47;;;;;;;18.45;11.48;;;;;;;;;;5082768;28;20174;-60
2023/04/16 01:32:13;;;;;;;18.95;10.32;;;;;;;;;;5083256;28;20132;-59
2023/04/16 01:34:40;;;;;;;17.65;10.82;;;;;;;;;;5083606;28;20039;-59
2023/04/16 01:37:06;;;;;;;20.88;12.85;;;;;;;;;;5085719;28;20048;-60
2023/04/16 01:39:32;;;;;;;13.38;8.35;;;;;;;;;;5084398;28;20050;-59
2023/04/16 01:41:58;;;;;;;19.70;11.85;;;;;;;;;;5084571;28;20044;-59
2023/04/16 01:44:24;;;;;;;21.17;11.52;;;;;;;;;;5084915;28;20037;-60
2023/04/16 01:46:50;;;;;;;21.15;12.73;;;;;;;;;;5085645;28;20051;-59
2023/04/16 01:49:16;;;;;;;18.92;11.82;;;;;;;;;;5083914;28;20160;-60
2023/04/16 01:51:43;;;;;;;22.95;12.80;;;;;;;;;;5068358;28;20484;-60
2023/04/16 01:54:09;;;;;;;20.98;11.68;;;;;;;;;;5085361;28;20128;-60
2023/04/16 01:56:35;;;;;;;17.48;11.02;;;;;;;;;;5083981;28;20243;-59
2023/04/16 01:59:01;;;;;;;22.60;12.38;;;;;;;;;;5082914;28;20083;-59
2023/04/16 02:01:27;;;;;;;22.23;12.73;;;;;;;;;;5084611;28;20121;-59
2023/04/16 02:03:53;;;;;;;24.33;13.45;;;;;;;;;;5084732;28;20108;-59
2023/04/16 02:06:20;;;;;;;19.75;11.15;;;;;;;;;;5085545;28;20097;-59
2023/04/16 02:08:46;;;;;;;22.73;12.70;;;;;;;;;;5084559;28;20133;-59
2023/04/16 02:11:12;;;;;;;19.35;10.98;;;;;;;;;;5086170;28;20523;-59
2023/04/16 02:13:38;;;;;;;20.88;13.32;;;;;;;;;;5082563;28;20535;-59
2023/04/16 02:16:04;;;;;;;20.30;12.85;;;;;;;;;;5084896;28;20048;-59
2023/04/16 02:18:30;;;;;;;21.85;12.80;;;;;;;;;;5083165;28;20121;-59
2023/04/16 02:20:58;;;;;;;17.92;11.02;;;;;;;;;;5085659;28;20045;-59
2023/04/16 02:23:24;;;;;;;21.40;12.35;;;;;;;;;;5082918;27;20036;-60
2023/04/16 02:25:50;;;;;;;24.27;14.23;;;;;;;;;;5084648;28;20055;-59
2023/04/16 02:28:16;;;;;;;25.13;13.38;;;;;;;;;;5084192;28;20044;-59
2023/04/16 02:30:43;;;;;;;21.13;13.52;;;;;;;;;;5082724;28;20039;-59
2023/04/16 02:33:09;;;;;;;21.73;10.43;;;;;;;;;;5082884;28;20044;-59
2023/04/16 02:35:36;;;;;;;20.00;12.20;;;;;;;;;;5083628;28;20055;-59
2023/04/16 02:38:03;;;;;;;20.23;10.93;;;;;;;;;;5082844;28;20041;-59
2023/04/16 02:40:29;;;;;;;20.23;12.98;;;;;;;;;;5081238;28;20047;-59
2023/04/16 02:42:55;;;;;;;21.45;12.30;;;;;;;;;;5083600;27;20056;-59
2023/04/16 02:45:22;;;;;;;20.30;11.07;;;;;;;;;;5083022;28;20041;-59
2023/04/16 02:47:48;;;;;;;26.02;13.98;;;;;;;;;;5084168;28;22344;-59
2023/04/16 02:50:15;;;;;;;10.93;6.70;;;;;;;;;;5082202;28;20040;-59
2023/04/16 02:52:41;;;;;;;22.95;13.38;;;;;;;;;;5083319;28;20037;-59
2023/04/16 02:55:07;;;;;;;28.95;13.07;;;;;;;;;;5082431;28;20044;-59
2023/04/16 02:57:33;;;;;;;22.88;13.35;;;;;;;;;;5080960;28;20037;-59
2023/04/16 02:59:59;;;;;;;24.05;13.45;;;;;;;;;;5080644;28;20064;-59
2023/04/16 03:02:28;;;;;;;24.70;13.70;;;;;;;;;;5083302;28;20912;-59
2023/04/16 03:04:55;;;;;;;22.73;14.35;;;;;;;;;;5081244;28;20492;-59
2023/04/16 03:07:21;;;;;;;30.42;14.35;;;;;;;;;;5081796;28;20119;-59
2023/04/16 03:09:47;;;;;;;20.63;13.20;;;;;;;;;;5078916;28;20068;-59
2023/04/16 03:12:13;;;;;;;20.20;12.05;;;;;;;;;;5080182;28;21258;-59
2023/04/16 03:14:39;;;;;;;21.23;13.27;;;;;;;;;;5079625;28;20593;-59
2023/04/16 03:17:05;;;;;;;21.33;13.10;;;;;;;;;;5075562;28;20051;-59
2023/04/16 03:19:32;;;;;;;24.35;13.15;;;;;;;;;;5077327;27;20660;-59
2023/04/16 03:21:58;;;;;;;22.25;13.43;;;;;;;;;;5083252;28;20051;-59
2023/04/16 03:24:25;;;;;;;27.15;13.55;;;;;;;;;;5080293;28;20044;-59
2023/04/16 03:26:51;;;;;;;23.40;13.60;;;;;;;;;;5065782;28;20040;-59
2023/04/16 03:29:17;;;;;;;23.13;11.20;;;;;;;;;;5081182;28;20058;-59
2023/04/16 03:31:43;;;;;;;21.60;13.25;;;;;;;;;;5080204;28;20073;-60
2023/04/16 03:34:09;;;;;;;24.08;12.13;;;;;;;;;;5079517;28;20547;-61
2023/04/16 03:36:35;;;;;;;21.58;9.15;;;;;;;;;;5082320;28;20040;-60
2023/04/16 03:39:01;;;;;;;22.77;13.88;;;;;;;;;;5079482;28;20047;-60
2023/04/16 03:41:27;;;;;;;21.67;12.77;;;;;;;;;;5080981;28;20090;-60
2023/04/16 03:43:53;;;;;;;22.92;12.30;;;;;;;;;;5065410;28;20058;-60
2023/04/16 03:46:20;;;;;;;23.73;13.35;;;;;;;;;;5079133;28;20117;-61
2023/04/16 03:48:46;;;;;;;20.38;12.40;;;;;;;;;;5079791;28;20532;-60
2023/04/16 03:51:12;;;;;;;22.80;13.75;;;;;;;;;;5079017;28;20230;-60
2023/04/16 03:53:38;;;;;;;21.67;14.85;;;;;;;;;;5080733;28;20049;-60
2023/04/16 03:56:04;;;;;;;25.27;14.70;;;;;;;;;;5082140;28;20044;-60
2023/04/16 03:58:30;;;;;;;22.67;13.73;;;;;;;;;;5067813;28;20153;-60
2023/04/16 04:00:56;;;;;;;21.20;12.02;;;;;;;;;;5084798;28;20559;-61
2023/04/16 04:03:22;;;;;;;22.98;12.88;;;;;;;;;;5084678;28;20548;-60
2023/04/16 04:05:49;;;;;;;23.20;12.77;;;;;;;;;;5084100;28;20542;-60
2023/04/16 04:08:15;;;;;;;21.35;12.90;;;;;;;;;;5084615;28;20083;-60
2023/04/16 04:10:41;;;;;;;26.98;12.25;;;;;;;;;;5084398;28;20048;-60
2023/04/16 04:13:07;;;;;;;23.08;12.45;;;;;;;;;;5083702;28;20140;-60
2023/04/16 04:15:33;;;;;;;24.38;12.55;;;;;;;;;;5085693;28;20039;-60
2023/04/16 04:17:59;;;;;;;24.83;13.57;;;;;;;;;;5085393;28;20063;-61
2023/04/16 04:20:25;;;;;;;23.80;13.65;;;;;;;;;;5083416;28;20051;-60
2023/04/16 04:22:51;;;;;;;23.00;12.65;;;;;;;;;;5085885;28;20126;-60
2023/04/16 04:25:18;;;;;;;24.08;12.32;;;;;;;;;;5084310;28;20040;-60
2023/04/16 04:27:44;;;;;;;23.13;13.02;;;;;;;;;;5083478;28;20044;-61
2023/04/16 04:30:10;;;;;;;25.23;12.98;;;;;;;;;;5084517;28;20036;-60
2023/04/16 04:32:36;;;;;;;24.73;13.90;;;;;;;;;;5085314;28;20041;-60
2023/04/16 04:35:03;;;;;;;22.90;12.23;;;;;;;;;;5084648;28;20048;-60
2023/04/16 04:37:29;;;;;;;27.52;12.65;;;;;;;;;;5082324;28;20040;-60
2023/04/16 04:39:55;;;;;;;20.63;11.68;;;;;;;;;;5083509;28;20041;-60
2023/04/16 04:42:21;;;;;;;19.90;11.65;;;;;;;;;;5084483;28;20133;-60
2023/04/16 04:44:48;;;;;;;23.52;13.90;;;;;;;;;;5083440;28;20037;-60
2023/04/16 04:47:14;;;;;;;21.40;13.15;;;;;;;;;;5083090;28;20045;-60
2023/04/16 04:49:40;;;;;;;26.25;15.82;;;;;;;;;;5083127;28;20531;-60
2023/04/16 04:52:07;;;;;;;23.15;12.25;;;;;;;;;;5083886;28;20427;-60
2023/04/16 04:54:33;;;;;;;18.42;11.10;;;;;;;;;;5083324;28;20050;-60
2023/04/16 04:57:00;;;;;;;19.58;11.52;;;;;;;;;;5082831;28;20040;-60
2023/04/16 04:59:26;;;;;;;19.10;12.48;;;;;;;;;;5081476;27;20439;-60
2023/04/16 05:01:52;;;;;;;16.38;10.27;;;;;;;;;;5082806;28;20055;-59
2023/04/16 05:04:18;;;;;;;15.02;9.63;;;;;;;;;;5081701;28;20040;-61
2023/04/16 05:06:45;;;;;;;14.35;8.68;;;;;;;;;;5083409;28;20203;-60
2023/04/16 05:09:11;;;;;;;17.55;8.95;;;;;;;;;;5065427;28;20076;-60
2023/04/16 05:11:38;;;;;;;14.52;9.45;;;;;;;;;;5083921;28;20044;-60
2023/04/16 05:14:04;;;;;;;20.92;12.10;;;;;;;;;;5082745;28;20123;-60
2023/04/16 05:16:30;;;;;;;18.58;9.60;;;;;;;;;;5082636;28;20501;-60
2023/04/16 05:18:57;;;;;;;15.10;9.10;;;;;;;;;;5083586;28;20532;-60
2023/04/16 05:21:23;;;;;;;15.88;9.70;;;;;;;;;;5082112;28;20048;-60
2023/04/16 05:23:49;;;;;;;17.45;9.88;;;;;;;;;;5084966;28;20040;-60
2023/04/16 05:26:15;;;;;;;16.65;8.38;;;;;;;;;;5082121;28;20044;-60
2023/04/16 05:28:41;;;;;;;15.07;9.57;;;;;;;;;;5082859;28;20047;-59
2023/04/16 05:31:07;;;;;;;15.05;8.82;;;;;;;;;;5080260;28;20048;-60
2023/04/16 05:33:33;;;;;;;15.38;8.48;;;;;;;;;;5082238;28;20796;-60
2023/04/16 05:35:59;;;;;;;15.18;9.07;;;;;;;;;;5082768;28;20067;-60
2023/04/16 05:38:25;;;;;;;14.68;7.97;;;;;;;;;;5083109;28;20044;-60
2023/04/16 05:40:52;;;;;;;16.92;9.20;;;;;;;;;;5082277;28;20051;-60
2023/04/16 05:43:18;;;;;;;16.40;8.90;;;;;;;;;;5081024;28;20059;-60
2023/04/16 05:45:44;;;;;;;16.08;8.50;;;;;;;;;;5082827;28;20040;-60
2023/04/16 05:48:10;;;;;;;18.48;9.32;;;;;;;;;;5082889;28;20040;-60
2023/04/16 05:50:37;;;;;;;14.18;8.45;;;;;;;;;;5079197;28;20048;-60
2023/04/16 05:53:08;;;;;;;14.23;7.55;;;;;;;;;;5083728;28;20166;-60
2023/04/16 05:55:38;;;;;;;29.10;10.20;;;;;;;;;;5084464;28;20041;-60
2023/04/16 05:58:04;;;;;;;23.73;8.25;;;;;;;;;;5083563;28;20312;-60
2023/04/16 06:00:31;;;;;;;12.38;6.47;;;;;;;;;;5080535;27;20044;-60
2023/04/16 06:02:57;;;;;;;14.75;8.40;;;;;;;;;;5081176;28;20116;-60
2023/04/16 06:05:25;;;;;;;16.88;8.20;;;;;;;;;;5082761;28;20040;-60
2023/04/16 06:07:51;;;;;;;16.58;9.30;;;;;;;;;;5082664;28;20036;-60
2023/04/16 06:10:17;;;;;;;16.83;8.13;;;;;;;;;;5080334;28;20051;-60
2023/04/16 06:12:43;;;;;;;13.82;8.23;;;;;;;;;;5085041;28;20070;-60
2023/04/16 06:15:10;;;;;;;14.35;7.78;;;;;;;;;;5083178;28;20090;-60
2023/04/16 06:17:36;;;;;;;12.55;7.25;;;;;;;;;;5083410;28;20040;-60
2023/04/16 06:20:02;;;;;;;14.77;8.60;;;;;;;;;;5082212;28;20049;-60
2023/04/16 06:22:28;;;;;;;13.20;7.72;;;;;;;;;;5081504;28;20044;-60
2023/04/16 06:24:54;;;;;;;21.23;10.43;;;;;;;;;;5084954;28;20085;-60
2023/04/16 06:27:20;;;;;;;14.07;10.13;;;;;;;;;;5080777;28;20048;-61
2023/04/16 06:29:46;;;;;;;12.65;7.13;;;;;;;;;;5083138;28;20142;-60
2023/04/16 06:32:12;;;;;;;16.65;8.05;;;;;;;;;;5080964;28;20036;-60
2023/04/16 06:34:38;;;;;;;13.48;7.78;;;;;;;;;;5082645;28;20054;-60
2023/04/16 06:37:04;;;;;;;12.77;7.55;;;;;;;;;;5084462;28;20519;-61
2023/04/16 06:39:30;;;;;;;10.80;6.13;;;;;;;;;;5083722;28;21182;-60
2023/04/16 06:41:56;;;;;;;10.13;6.93;;;;;;;;;;5083291;28;20779;-60
2023/04/16 06:44:22;;;;;;;11.48;4.95;;;;;;;;;;5079419;28;20116;-60
2023/04/16 06:46:49;;;;;;;7.70;4.15;;;;;;;;;;5081425;28;20032;-60
2023/04/16 06:49:15;;;;;;;13.73;7.63;;;;;;;;;;5082835;28;20119;-60
2023/04/16 06:51:42;;;;;;;12.75;6.20;;;;;;;;;;5065879;28;20079;-60
2023/04/16 06:54:08;;;;;;;14.18;5.55;;;;;;;;;;5081822;28;20044;-60
2023/04/16 06:56:36;;;;;;;9.63;5.55;;;;;;;;;;5080100;28;20048;-60
2023/04/16 06:59:02;;;;;;;11.02;5.80;;;;;;;;;;5081646;27;20048;-60
2023/04/16 07:01:30;;;;;;;9.55;5.85;;;;;;;;;;5084177;28;20048;-60
2023/04/16 07:03:56;;;;;;;9.85;5.15;;;;;;;;;;5078842;27;20095;-60
2023/04/16 07:06:22;;;;;;;9.43;4.40;;;;;;;;;;5083166;28;20116;-60
2023/04/16 07:08:48;;;;;;;11.57;6.07;;;;;;;;;;5083360;28;20053;-60
2023/04/16 07:11:14;;;;;;;7.28;4.32;;;;;;;;;;5084632;28;21183;-60
2023/04/16 07:13:40;;;;;;;8.45;4.25;;;;;;;;;;5084466;28;20041;-60
2023/04/16 07:16:06;;;;;;;8.13;4.55;;;;;;;;;;5084171;28;20077;-61
2023/04/16 07:18:32;;;;;;;11.88;5.50;;;;;;;;;;5083032;28;20044;-60
2023/04/16 07:20:58;;;;;;;8.65;4.47;;;;;;;;;;5081575;28;20043;-60
2023/04/16 07:23:24;;;;;;;8.02;4.47;;;;;;;;;;5079209;28;20057;-60
2023/04/16 07:25:50;;;;;;;12.07;4.18;;;;;;;;;;5065647;28;20147;-60
2023/04/16 07:28:17;;;;;;;7.82;4.70;;;;;;;;;;5079033;28;20506;-60
2023/04/16 07:30:43;;;;;;;9.38;5.25;;;;;;;;;;5081082;28;20071;-60
2023/04/16 07:33:09;;;;;;;9.23;3.83;;;;;;;;;;5080882;28;20071;-60
2023/04/16 07:35:35;;;;;;;9.75;4.80;;;;;;;;;;5082834;28;21010;-60
2023/04/16 07:38:01;;;;;;;9.55;5.05;;;;;;;;;;5083486;28;20569;-60
2023/04/16 07:40:27;;;;;;;8.07;5.30;;;;;;;;;;5084490;28;20090;-60
2023/04/16 07:42:54;;;;;;;8.38;5.82;;;;;;;;;;5083405;28;20503;-60
2023/04/16 07:45:20;;;;;;;8.18;4.95;;;;;;;;;;5083652;27;20038;-60
2023/04/16 07:47:46;;;;;;;5.32;3.58;;;;;;;;;;5083773;28;20044;-61
2023/04/16 07:50:13;;;;;;;5.63;3.70;;;;;;;;;;5082317;28;20048;-60
2023/04/16 07:52:41;;;;;;;9.80;3.33;;;;;;;;;;5082447;28;20032;-60
2023/04/16 07:55:08;;;;;;;6.95;3.80;;;;;;;;;;5066896;28;20082;-60
2023/04/16 07:57:34;;;;;;;6.50;3.45;;;;;;;;;;5079559;28;20461;-60
2023/04/16 08:00:03;;;;;;;6.18;2.83;;;;;;;;;;5079660;28;20072;-60
2023/04/16 08:02:30;;;;;;;10.10;4.00;;;;;;;;;;5079519;28;20772;-59
2023/04/16 08:04:56;;;;;;;7.40;3.50;;;;;;;;;;5080812;28;20047;-60
2023/04/16 08:07:22;;;;;;;5.70;3.53;;;;;;;;;;5082342;28;20040;-60
2023/04/16 08:09:49;;;;;;;6.40;3.92;;;;;;;;;;5082557;28;20169;-60
2023/04/16 08:12:16;;;;;;;9.73;4.00;;;;;;;;;;5083026;28;20032;-60
2023/04/16 08:14:43;;;;;;;7.43;3.05;;;;;;;;;;5082067;27;20146;-60
2023/04/16 08:17:10;;;;;;;9.52;3.35;;;;;;;;;;5083489;28;20572;-60
2023/04/16 08:19:36;;;;;;;6.03;2.83;;;;;;;;;;5063923;28;20051;-60
2023/04/16 08:22:02;;;;;;;7.85;4.28;;;;;;;;;;5079439;28;20156;-60
2023/04/16 08:24:28;;;;;;;11.90;4.68;;;;;;;;;;5080050;28;20063;-60
2023/04/16 08:26:54;;;;;;;9.23;3.63;;;;;;;;;;5078438;28;20076;-59
2023/04/16 08:29:20;;;;;;;9.07;3.85;;;;;;;;;;5081751;28;20165;-60
2023/04/16 08:31:46;;;;;;;9.60;4.38;;;;;;;;;;5074328;28;20047;-60
2023/04/16 08:34:12;;;;;;;6.35;3.58;;;;;;;;;;5079242;28;21504;-59
2023/04/16 08:36:40;;;;;;;6.65;2.95;;;;;;;;;;5076090;28;20044;-59
2023/04/16 08:39:06;;;;;;;7.82;3.05;;;;;;;;;;5077172;28;20040;-59
2023/04/16 08:41:33;;;;;;;5.60;3.30;;;;;;;;;;5076254;28;20059;-60
2023/04/16 08:44:00;;;;;;;8.77;4.05;;;;;;;;;;5079838;28;20044;-60
2023/04/16 08:46:27;;;;;;;7.07;3.53;;;;;;;;;;5080229;28;20143;-60
2023/04/16 08:48:55;;;;;;;10.85;3.00;;;;;;;;;;5078982;28;20101;-59
2023/04/16 08:51:22;;;;;;;13.15;3.72;;;;;;;;;;5082052;28;20050;-60
2023/04/16 08:53:51;;;;;;;7.05;3.90;;;;;;;;;;5082285;27;20040;-60
2023/04/16 08:56:19;;;;;;;9.88;2.78;;;;;;;;;;5082914;28;20059;-60
2023/04/16 08:58:47;;;;;;;6.35;3.58;;;;;;;;;;5064643;28;20032;-60
2023/04/16 09:01:13;;;;;;;9.60;2.85;;;;;;;;;;5081719;28;20048;-60
2023/04/16 09:03:40;;;;;;;9.30;4.47;;;;;;;;;;5081538;28;20039;-60
2023/04/16 09:06:07;;;;;;;6.43;3.03;;;;;;;;;;5081565;28;20613;-60
2023/04/16 09:08:34;;;;;;;7.53;3.17;;;;;;;;;;5081910;28;20048;-60
2023/04/16 09:11:01;;;;;;;6.95;3.88;;;;;;;;;;5062142;28;20800;-60
2023/04/16 09:13:27;;;;;;;5.40;3.50;;;;;;;;;;5081199;28;20086;-59
2023/04/16 09:15:54;;;;;;;7.25;3.33;;;;;;;;;;5080478;28;20083;-59
2023/04/16 09:18:20;;;;;;;4.93;2.95;;;;;;;;;;5080947;27;20120;-60
2023/04/16 09:20:47;;;;;;;7.47;3.08;;;;;;;;;;5079605;28;20064;-59
2023/04/16 09:23:13;;;;;;;5.22;2.95;;;;;;;;;;5081671;28;20597;-59
2023/04/16 09:25:39;;;;;;;11.10;3.72;;;;;;;;;;5080362;27;20054;-60
2023/04/16 09:28:05;;;;;;;5.57;2.28;;;;;;;;;;5064144;28;20051;-59
2023/04/16 09:30:32;;;;;;;8.05;3.42;;;;;;;;;;5081267;28;20138;-59
2023/04/16 09:33:30;;;;;;;4.05;2.50;;;;;;;;;;5080978;27;20051;-60
2023/04/16 09:35:56;;;;;;;5.32;3.28;;;;;;;;;;5036351;27;20498;-60
2023/04/16 09:38:25;;;;;;;7.93;3.53;;;;;;;;;;5079040;28;20177;-60
2023/04/16 09:41:06;;;;;;;10.38;3.90;;;;;;;;;;5076386;28;20047;-59
2023/04/16 09:43:32;;;;;;;3.33;2.33;;;;;;;;;;5083679;27;20052;-60
2023/04/16 09:45:58;;;;;;;10.55;4.25;;;;;;;;;;5079907;28;20721;-60
2023/04/16 09:48:31;;;;;;;6.53;3.30;;;;;;;;;;5079501;28;20925;-60
2023/04/16 09:51:00;;;;;;;6.78;2.85;;;;;;;;;;5077355;28;20605;-60
2023/04/16 09:53:27;;;;;;;6.57;3.50;;;;;;;;;;5078362;28;20041;-60
2023/04/16 09:56:00;;;;;;;3.05;1.48;;;;;;;;;;5082256;28;20083;-59
2023/04/16 09:58:27;;;;;;;5.63;3.03;;;;;;;;;;5083206;28;20051;-60
2023/04/16 10:01:00;;;;;;;6.55;2.65;;;;;;;;;;5080495;28;20040;-60
2023/04/16 10:03:30;;;;;;;5.70;2.97;;;;;;;;;;5079524;28;20040;-60
2023/04/16 10:05:59;;;;;;;13.65;3.72;;;;;;;;;;5080974;28;20052;-60
2023/04/16 10:08:25;;;;;;;8.32;3.42;;;;;;;;;;5081059;28;20551;-60
2023/04/16 10:10:52;;;;;;;5.88;3.42;;;;;;;;;;5081426;28;21349;-60
2023/04/16 10:13:18;;;;;;;5.97;2.58;;;;;;;;;;5081328;28;20048;-60
2023/04/16 10:15:44;;;;;;;9.40;3.35;;;;;;;;;;5083807;28;20490;-60
2023/04/16 10:18:10;;;;;;;4.57;3.55;;;;;;;;;;5079351;28;20518;-60
2023/04/16 10:20:36;;;;;;;6.32;3.90;;;;;;;;;;5079388;28;20036;-60
2023/04/16 10:23:04;;;;;;;4.45;2.72;;;;;;;;;;5085117;28;20102;-60
2023/04/16 10:25:30;;;;;;;6.75;3.08;;;;;;;;;;5082334;28;20518;-60
2023/04/16 10:27:56;;;;;;;4.75;2.40;;;;;;;;;;5067432;28;20045;-60
2023/04/16 10:30:23;;;;;;;5.50;2.22;;;;;;;;;;5082928;28;20086;-60
2023/04/16 10:32:49;;;;;;;3.33;2.28;;;;;;;;;;5080841;28;20491;-60
2023/04/16 10:35:19;;;;;;;3.17;1.95;;;;;;;;;;5080936;28;20049;-60
2023/04/16 10:37:46;;;;;;;8.55;2.30;;;;;;;;;;5083857;27;20040;-60
2023/04/16 10:40:25;;;;;;;5.55;2.15;;;;;;;;;;5083709;28;20075;-60
2023/04/16 10:42:58;;;;;;;10.05;2.33;;;;;;;;;;5081489;28;20044;-60
2023/04/16 10:45:42;;;;;;;6.70;3.28;;;;;;;;;;5083985;27;20063;-60
2023/04/16 10:48:08;;;;;;;7.00;1.63;;;;;;;;;;5083672;28;20044;-61
2023/04/16 10:50:38;;;;;;;5.47;2.85;;;;;;;;;;5084649;28;20754;-60
2023/04/16 10:53:18;;;;;;;3.10;2.15;;;;;;;;;;5081750;27;20051;-60
2023/04/16 10:55:56;;;;;;;5.45;1.90;;;;;;;;;;5081267;28;20106;-61
2023/04/16 10:58:28;;;;;;;5.78;2.22;;;;;;;;;;5081378;28;20040;-60
2023/04/16 11:00:54;;;;;;;7.50;2.15;;;;;;;;;;5080875;28;20548;-60
2023/04/16 11:03:21;;;;;;;5.90;2.20;;;;;;;;;;5081135;28;20501;-60
2023/04/16 11:05:47;;;;;;;5.00;2.65;;;;;;;;;;5080926;28;20511;-60
2023/04/16 11:08:13;;;;;;;8.40;4.90;;;;;;;;;;5078199;28;22009;-60
2023/04/16 11:10:39;;;;;;;7.63;3.20;;;;;;;;;;5080539;28;20075;-60
2023/04/16 11:13:06;;;;;;;3.55;2.65;;;;;;;;;;5081010;28;20067;-60
2023/04/16 11:15:33;;;;;;;6.50;2.53;;;;;;;;;;5078228;28;20037;-60
2023/04/16 11:17:59;;;;;;;5.10;2.38;;;;;;;;;;5078623;27;20047;-60
2023/04/16 11:20:27;;;;;;;8.82;3.55;;;;;;;;;;5065241;28;21141;-60
2023/04/16 11:22:54;;;;;;;4.32;2.22;;;;;;;;;;5080912;28;20050;-59
2023/04/16 11:25:21;;;;;;;8.93;2.95;;;;;;;;;;5081075;28;20040;-59
2023/04/16 11:27:47;;;;;;;10.27;2.80;;;;;;;;;;5079700;27;20550;-60
2023/04/16 11:30:14;;;;;;;5.00;2.63;;;;;;;;;;5079312;28;20044;-60
2023/04/16 11:32:40;;;;;;;9.93;3.45;;;;;;;;;;5075751;28;20045;-60
2023/04/16 11:35:18;;;;;;;7.00;3.63;;;;;;;;;;5077940;28;20070;-60
2023/04/16 11:37:45;;;;;;;4.93;2.40;;;;;;;;;;5078935;28;20047;-59
2023/04/16 11:40:11;;;;;;;7.70;2.80;;;;;;;;;;5082707;27;20033;-60
2023/04/16 11:42:42;;;;;;;5.35;2.28;;;;;;;;;;5082299;27;20122;-60
2023/04/16 11:45:09;;;;;;;4.38;2.13;;;;;;;;;;5078713;28;20048;-60
2023/04/16 11:47:45;;;;;;;5.07;3.22;;;;;;;;;;5078242;28;20048;-60
2023/04/16 11:50:21;;;;;;;5.68;3.13;;;;;;;;;;5082769;28;20512;-60
2023/04/16 11:52:48;;;;;;;4.57;3.05;;;;;;;;;;5081195;28;20040;-60
2023/04/16 11:55:14;;;;;;;3.22;2.83;;;;;;;;;;5080621;28;20044;-60
2023/04/16 11:57:41;;;;;;;11.10;3.63;;;;;;;;;;5081511;28;20151;-60
2023/04/16 12:00:12;;;;;;;3.22;1.58;;;;;;;;;;5079034;28;20287;-60
2023/04/16 12:02:41;;;;;;;7.10;3.88;;;;;;;;;;5081428;28;20515;-60
2023/04/16 12:05:27;;;;;;;5.95;3.28;;;;;;;;;;5067014;28;20064;-60
2023/04/16 12:07:54;;;;;;;7.65;3.25;;;;;;;;;;5080306;28;20217;-60
2023/04/16 12:10:20;;;;;;;8.32;2.80;;;;;;;;;;5081889;28;20126;-60
2023/04/16 12:12:46;;;;;;;5.75;2.63;;;;;;;;;;5079377;28;20087;-60
2023/04/16 12:15:12;;;;;;;6.45;2.88;;;;;;;;;;5078727;28;20067;-60
2023/04/16 12:17:38;;;;;;;4.45;3.38;;;;;;;;;;5079340;28;20044;-60
2023/04/16 12:20:11;;;;;;;6.75;3.03;;;;;;;;;;5083998;28;20463;-60
2023/04/16 12:22:44;;;;;;;4.00;1.95;;;;;;;;;;5081424;28;20037;-60
2023/04/16 12:25:10;;;;;;;;;;;;;;;;;;5083128;28;20102;-60
2023/04/16 12:27:42;;;;;;;7.32;3.67;;;;;;;;;;5083150;28;20318;-60
2023/04/16 12:30:08;;;;;;;8.55;3.13;;;;;;;;;;5083567;28;20044;-61
2023/04/16 12:32:35;;;;;;;7.43;2.75;;;;;;;;;;5076396;28;20037;-60
2023/04/16 12:35:01;;;;;;;5.25;3.05;;;;;;;;;;5084467;28;20055;-60
2023/04/16 12:37:27;;;;;;;9.13;3.35;;;;;;;;;;5083443;28;20028;-60
2023/04/16 12:39:54;;;;;;;6.70;2.53;;;;;;;;;;5084987;28;20036;-60
2023/04/16 12:42:20;;;;;;;5.82;2.58;;;;;;;;;;5083292;28;20566;-60
2023/04/16 12:44:46;;;;;;;5.47;2.67;;;;;;;;;;5084569;28;20053;-60
2023/04/16 12:47:12;;;;;;;4.50;2.40;;;;;;;;;;5083261;28;20040;-60
2023/04/16 12:49:38;;;;;;;6.10;2.10;;;;;;;;;;5083694;28;20045;-60
2023/04/16 12:52:05;;;;;;;5.97;3.05;;;;;;;;;;5081447;28;20049;-59
2023/04/16 12:54:31;;;;;;;3.72;2.85;;;;;;;;;;5082431;28;20048;-59
2023/04/16 12:56:58;;;;;;;3.38;2.00;;;;;;;;;;5076315;28;20042;-59
2023/04/16 12:59:24;;;;;;;3.20;1.92;;;;;;;;;;5080878;28;20044;-59
2023/04/16 13:01:50;;;;;;;5.13;2.67;;;;;;;;;;5085555;28;20033;-59
2023/04/16 13:04:17;;;;;;;2.80;1.65;;;;;;;;;;5081796;28;20048;-59
2023/04/16 13:06:44;;;;;;;4.45;2.47;;;;;;;;;;5071318;27;20048;-59
2023/04/16 13:09:10;;;;;;;4.43;2.80;;;;;;;;;;5077081;28;20078;-59
2023/04/16 13:11:36;;;;;;;3.20;2.13;;;;;;;;;;5074068;28;21007;-59
2023/04/16 13:14:02;;;;;;;5.97;2.08;;;;;;;;;;5081726;28;20126;-59
2023/04/16 13:16:28;;;;;;;5.05;2.22;;;;;;;;;;5064392;28;20582;-59
2023/04/16 13:18:55;;;;;;;7.78;2.55;;;;;;;;;;5084952;28;20853;-58
2023/04/16 13:21:22;;;;;;;4.65;2.15;;;;;;;;;;5081579;28;21237;-59
2023/04/16 13:23:48;;;;;;;6.40;2.28;;;;;;;;;;5083117;28;20052;-60
2023/04/16 13:26:15;;;;;;;3.28;2.30;;;;;;;;;;5080986;28;20703;-58
2023/04/16 13:28:41;;;;;;;3.67;1.55;;;;;;;;;;5080696;27;20043;-58
2023/04/16 13:31:07;;;;;;;4.75;1.98;;;;;;;;;;5082512;28;20044;-58
2023/04/16 13:33:33;;;;;;;4.00;2.47;;;;;;;;;;5080686;28;20083;-59
2023/04/16 13:35:59;;;;;;;4.40;2.10;;;;;;;;;;5082743;28;20070;-59
2023/04/16 13:38:25;;;;;;;8.00;2.42;;;;;;;;;;5081319;28;20044;-59
2023/04/16 13:40:51;;;;;;;6.95;2.05;;;;;;;;;;5080203;28;20558;-59
2023/04/16 13:43:17;;;;;;;6.82;3.75;;;;;;;;;;5081718;28;20056;-58
2023/04/16 13:45:44;;;;;;;5.38;2.22;;;;;;;;;;5081802;28;20929;-59
2023/04/16 13:48:10;;;;;;;5.38;3.55;;;;;;;;;;5078210;28;20044;-59
2023/04/16 13:50:36;;;;;;;6.35;2.40;;;;;;;;;;5081968;28;20083;-59
2023/04/16 13:53:02;;;;;;;4.25;2.13;;;;;;;;;;5079360;28;20162;-59
2023/04/16 13:55:30;;;;;;;9.45;2.33;;;;;;;;;;5080572;28;20044;-59
2023/04/16 13:57:57;;;;;;;4.10;2.00;;;;;;;;;;5082585;28;20048;-59
2023/04/16 14:00:23;;;;;;;7.30;2.17;;;;;;;;;;5079540;28;20040;-58
2023/04/16 14:02:49;;;;;;;4.28;2.10;;;;;;;;;;5080672;28;20047;-59
2023/04/16 14:05:15;;;;;;;2.38;2.00;;;;;;;;;;5079577;28;20163;-59
2023/04/16 14:07:41;;;;;;;3.47;1.63;;;;;;;;;;5079023;28;20044;-58
2023/04/16 14:10:07;;;;;;;6.43;2.22;;;;;;;;;;5079845;28;20097;-59
2023/04/16 14:12:33;;;;;;;7.55;2.67;;;;;;;;;;5083269;28;20044;-58
2023/04/16 14:15:02;;;;;;;5.25;3.25;;;;;;;;;;5082635;28;20048;-59
2023/04/16 14:17:28;;;;;;;8.43;1.85;;;;;;;;;;5081140;28;20040;-59
2023/04/16 14:19:54;;;;;;;5.78;2.08;;;;;;;;;;5082463;27;20066;-59
2023/04/16 14:22:20;;;;;;;4.18;1.75;;;;;;;;;;5083670;27;20076;-59
2023/04/16 14:24:47;;;;;;;4.20;2.53;;;;;;;;;;5081306;28;20048;-59
2023/04/16 14:27:13;;;;;;;4.35;1.83;;;;;;;;;;5083741;28;20090;-59
2023/04/16 14:29:40;;;;;;;4.13;2.25;;;;;;;;;;5083028;28;20045;-59